Terrell, TX

11:41 AM CST on December 07, 2016 (GMT -0600)
Terrell Municipal | | Change Station

Elev 476 ft 32.71 °N, 96.27 °W | Updated 48 minutes ago

Overcast
Overcast
51 °F
Feels Like 51 °F
N
0
Wind Variable Wind from North

Today
High -- | Low -- °F
--% Chance of Precip.
Yesterday
High -- | Low -- °F
Precip. -- in
Pressure 30.13 in
Visibility 10.0 miles
Clouds Few 1500 ft
Overcast 2800 ft
Dew Point 43 °F
Humidity 74%
Rainfall 0.00 in
Snow Depth Not available.
7:14 AM 5:18 PM
First Quarter, 54% visible
METAR KTRL 071653Z AUTO 00000KT 10SM FEW015 OVC028 11/06 A3013 RMK AO2 SLP201 T01060061
Pressure 30.13 in
Visibility 10.0 miles
Clouds Few 1500 ft
Overcast 2800 ft
Dew Point 43 °F
Humidity 74%
Rainfall 0.00 in
Snow Depth Not available.
7:14 AM 5:18 PM
First Quarter, 54% visible
METAR KTRL 071653Z AUTO 00000KT 10SM FEW015 OVC028 11/06 A3013 RMK AO2 SLP201 T01060061

10-Day Weather Forecast

Almanac

Astronomy

Dec. 07, 2016 Rise Set
Actual Time
Civil Twilight
Nautical Twilight
Astronomical Twilight
Moon
Length of Visible Light
Length of Day
Tomorrow will be .
, % of the Moon is Illuminated

Today's Extremes

State Highs State Lows

Community

WunderPhotos

Upload Photos

1,956,156 photos uploaded!

WunderBlog® & News

Nearby

Air Quality

  Air Quality AQ Index Pollutant
Not available.

Snow Depth

Station Depth Elevation

Earthquake Activity

City Distance Mag. Time & Date
Minimum magnitude displayed is 2.5.

Coastal Water Temperatures

Place Temperature

Stations

Nearby Weather Stations

Station Location Temp. Windchill Dew Point Humidity Wind Precip. Elev Updated Type
                   

Watches & Warnings

There are currently no watches in effect.